createdAt,value
2023-04-16T00:01:25.481Z,21.38
2023-04-16T00:03:52.194Z,19.58
2023-04-16T00:06:18.897Z,25.23
2023-04-16T00:08:45.413Z,20.77
2023-04-16T00:11:11.885Z,21.27
2023-04-16T00:13:38.407Z,21.08
2023-04-16T00:16:05.252Z,20.45
2023-04-16T00:18:31.990Z,22.23
2023-04-16T00:20:59.465Z,21.23
2023-04-16T00:23:26.008Z,21.40
2023-04-16T00:25:53.665Z,21.83
2023-04-16T00:28:20.268Z,20.98
2023-04-16T00:30:46.807Z,21.55
2023-04-16T00:33:13.223Z,22.63
2023-04-16T00:35:39.829Z,21.90
2023-04-16T00:38:06.299Z,22.20
2023-04-16T00:40:32.745Z,21.63
2023-04-16T00:42:59.200Z,22.33
2023-04-16T00:45:25.744Z,21.65
2023-04-16T00:47:52.239Z,23.17
2023-04-16T00:50:18.952Z,20.92
2023-04-16T00:52:47.624Z,21.25
2023-04-16T00:55:18.848Z,20.35
2023-04-16T00:57:45.839Z,22.00
2023-04-16T01:00:13.175Z,22.65
2023-04-16T01:02:39.788Z,22.48
2023-04-16T01:05:06.629Z,21.85
2023-04-16T01:07:33.090Z,20.63
2023-04-16T01:09:59.584Z,22.45
2023-04-16T01:12:26.240Z,21.73
2023-04-16T01:14:52.867Z,21.20
2023-04-16T01:17:19.259Z,21.23
2023-04-16T01:19:45.734Z,20.90
2023-04-16T01:22:12.191Z,21.70
2023-04-16T01:24:38.673Z,21.42
2023-04-16T01:27:05.056Z,20.95
2023-04-16T01:29:31.566Z,21.15
2023-04-16T01:31:57.943Z,20.58
2023-04-16T01:34:24.670Z,20.58
2023-04-16T01:36:52.472Z,21.17
2023-04-16T01:39:19.438Z,21.48
2023-04-16T01:41:46.403Z,22.58
2023-04-16T01:44:12.827Z,21.42
2023-04-16T01:46:39.615Z,21.15
2023-04-16T01:49:07.344Z,22.05
2023-04-16T01:51:34.109Z,20.92
2023-04-16T01:54:01.040Z,21.75
2023-04-16T01:56:27.480Z,21.02
2023-04-16T01:58:53.973Z,21.77
2023-04-16T02:01:20.545Z,21.08
2023-04-16T02:03:47.824Z,22.08
2023-04-16T02:06:14.945Z,20.30
2023-04-16T02:08:41.724Z,21.55
2023-04-16T02:11:08.213Z,20.70
2023-04-16T02:13:34.817Z,20.60
2023-04-16T02:16:02.378Z,19.15
2023-04-16T02:18:28.836Z,20.30
2023-04-16T02:20:59.375Z,20.73
2023-04-16T02:23:25.836Z,19.90
2023-04-16T02:25:52.391Z,21.52
2023-04-16T02:28:18.830Z,20.40
2023-04-16T02:30:45.502Z,20.45
2023-04-16T02:33:13.004Z,21.75
2023-04-16T02:35:40.580Z,21.83
2023-04-16T02:38:07.764Z,21.80
2023-04-16T02:40:34.348Z,21.38
2023-04-16T02:43:01.068Z,21.88
2023-04-16T02:45:27.719Z,21.25
2023-04-16T02:47:54.293Z,20.20
2023-04-16T02:50:21.018Z,21.02
2023-04-16T02:52:47.514Z,21.73
2023-04-16T02:55:13.913Z,22.73
2023-04-16T02:57:42.218Z,22.65
2023-04-16T03:00:09.079Z,23.42
2023-04-16T03:02:35.582Z,21.77
2023-04-16T03:05:03.092Z,23.58
2023-04-16T03:07:29.580Z,24.38
2023-04-16T03:09:55.982Z,23.30
2023-04-16T03:12:22.428Z,22.95
2023-04-16T03:14:51.039Z,22.08
2023-04-16T03:17:17.603Z,23.42
2023-04-16T03:19:44.086Z,22.77
2023-04-16T03:22:10.489Z,21.90
2023-04-16T03:24:38.130Z,23.95
2023-04-16T03:27:04.592Z,23.33
2023-04-16T03:29:30.972Z,24.13
2023-04-16T03:31:57.617Z,22.65
2023-04-16T03:34:24.052Z,22.83
2023-04-16T03:36:50.481Z,23.38
2023-04-16T03:39:17.012Z,23.17
2023-04-16T03:41:43.436Z,23.08
2023-04-16T03:44:09.821Z,23.33
2023-04-16T03:46:36.445Z,25.92
2023-04-16T03:49:02.973Z,22.90
2023-04-16T03:51:29.368Z,24.33
2023-04-16T03:53:55.969Z,23.90
2023-04-16T03:56:22.408Z,23.23
2023-04-16T03:58:48.799Z,23.92
2023-04-16T04:01:15.265Z,23.42
2023-04-16T04:03:41.972Z,23.38
2023-04-16T04:06:09.330Z,22.45
2023-04-16T04:08:35.787Z,22.48
2023-04-16T04:11:02.276Z,23.50
2023-04-16T04:13:28.703Z,23.58
2023-04-16T04:15:55.244Z,21.98
2023-04-16T04:18:21.768Z,23.63
2023-04-16T04:20:48.194Z,23.20
2023-04-16T04:23:14.603Z,22.85
2023-04-16T04:25:41.049Z,25.13
2023-04-16T04:28:07.468Z,24.30
2023-04-16T04:30:35.609Z,22.00
2023-04-16T04:33:02.180Z,24.45
2023-04-16T04:35:28.671Z,24.73
2023-04-16T04:37:55.126Z,25.15
2023-04-16T04:40:21.563Z,24.98
2023-04-16T04:42:47.970Z,25.02
2023-04-16T04:45:14.436Z,23.75
2023-04-16T04:47:41.102Z,24.52
2023-04-16T04:50:08.073Z,25.05
2023-04-16T04:52:34.461Z,24.67
2023-04-16T04:55:01.297Z,26.90
2023-04-16T04:57:27.703Z,23.92
2023-04-16T04:59:54.121Z,23.23
2023-04-16T05:02:20.712Z,23.75
2023-04-16T05:04:47.273Z,25.73
2023-04-16T05:07:13.783Z,23.90
2023-04-16T05:09:40.504Z,24.48
2023-04-16T05:12:07.081Z,24.15
2023-04-16T05:14:33.580Z,23.50
2023-04-16T05:17:00.079Z,24.88
2023-04-16T05:19:26.591Z,22.48
2023-04-16T05:21:53.062Z,23.92
2023-04-16T05:24:20.258Z,23.75
2023-04-16T05:26:46.633Z,24.10
2023-04-16T05:29:13.118Z,23.67
2023-04-16T05:31:39.595Z,25.15
2023-04-16T05:34:06.008Z,24.90
2023-04-16T05:36:32.499Z,23.45
2023-04-16T05:38:58.965Z,23.95
2023-04-16T05:41:25.463Z,24.15
2023-04-16T05:43:51.990Z,24.55
2023-04-16T05:46:18.483Z,23.83
2023-04-16T05:48:45.906Z,24.30
2023-04-16T05:51:12.311Z,23.35
2023-04-16T05:53:38.775Z,22.85
2023-04-16T05:56:05.747Z,24.45
2023-04-16T05:58:32.189Z,24.25
2023-04-16T06:00:58.768Z,22.65
2023-04-16T06:03:25.350Z,25.92
2023-04-16T06:05:51.842Z,24.55
2023-04-16T06:08:18.301Z,24.98
2023-04-16T06:10:47.792Z,22.83
2023-04-16T06:13:14.384Z,24.52
2023-04-16T06:15:40.889Z,24.70
2023-04-16T06:18:07.349Z,24.10
2023-04-16T06:20:33.833Z,24.02
2023-04-16T06:23:00.351Z,22.15
2023-04-16T06:25:26.765Z,23.25
2023-04-16T06:27:53.159Z,24.38
2023-04-16T06:30:19.998Z,24.63
2023-04-16T06:32:46.636Z,23.58
2023-04-16T06:35:13.224Z,24.25
2023-04-16T06:37:39.687Z,24.02
2023-04-16T06:40:06.592Z,23.40
2023-04-16T06:42:33.036Z,25.33
2023-04-16T06:44:59.440Z,24.45
2023-04-16T06:47:27.002Z,23.38
2023-04-16T06:49:53.442Z,23.90
2023-04-16T06:52:19.895Z,23.55
2023-04-16T06:54:46.323Z,22.17
2023-04-16T06:57:12.749Z,21.45
2023-04-16T06:59:39.508Z,21.25
2023-04-16T07:02:06.599Z,19.98
2023-04-16T07:04:33.090Z,22.60
2023-04-16T07:06:59.623Z,20.27
2023-04-16T07:09:27.163Z,21.35
2023-04-16T07:11:54.216Z,20.88
2023-04-16T07:14:20.771Z,20.55
2023-04-16T07:16:47.191Z,20.27
2023-04-16T07:19:13.684Z,19.38
2023-04-16T07:21:41.987Z,19.23
2023-04-16T07:24:08.466Z,19.75
2023-04-16T07:26:34.858Z,18.77
2023-04-16T07:29:01.310Z,18.30
2023-04-16T07:31:27.772Z,18.63
2023-04-16T07:33:54.218Z,17.75
2023-04-16T07:36:20.942Z,17.35
2023-04-16T07:38:47.371Z,17.15
2023-04-16T07:41:13.845Z,18.10
2023-04-16T07:43:40.309Z,17.08
2023-04-16T07:46:06.737Z,18.63
2023-04-16T07:48:33.228Z,16.17
2023-04-16T07:50:59.831Z,14.95
2023-04-16T07:53:26.260Z,15.27
2023-04-16T07:55:52.722Z,15.48
2023-04-16T07:58:19.148Z,16.73
2023-04-16T08:00:45.646Z,15.57
2023-04-16T08:03:12.231Z,15.30
2023-04-16T08:05:38.971Z,15.40
2023-04-16T08:08:05.501Z,16.50
2023-04-16T08:10:32.755Z,16.10
2023-04-16T08:13:01.355Z,15.27
2023-04-16T08:15:27.906Z,15.68
2023-04-16T08:17:54.365Z,15.40
2023-04-16T08:20:20.837Z,15.35
2023-04-16T08:22:48.712Z,16.42
2023-04-16T08:25:15.530Z,16.83
2023-04-16T08:27:41.957Z,15.80
2023-04-16T08:30:08.520Z,16.95
2023-04-16T08:32:35.320Z,17.73
2023-04-16T08:35:01.968Z,16.02
2023-04-16T08:37:28.346Z,16.23
2023-04-16T08:39:54.791Z,15.63
2023-04-16T08:42:32.033Z,17.75
2023-04-16T08:45:27.818Z,15.82
2023-04-16T08:47:54.361Z,14.18
2023-04-16T08:50:25.940Z,14.73
2023-04-16T08:52:53.645Z,14.35
2023-04-16T08:55:24.849Z,13.93
2023-04-16T08:57:57.630Z,15.05
2023-04-16T09:00:24.190Z,15.50
2023-04-16T09:02:51.568Z,15.63
2023-04-16T09:05:20.698Z,13.93
2023-04-16T09:07:48.386Z,15.43
2023-04-16T09:10:16.044Z,14.45
2023-04-16T09:12:42.932Z,14.82
2023-04-16T09:15:14.223Z,13.13
2023-04-16T09:17:40.845Z,13.65
2023-04-16T09:20:08.994Z,13.57
2023-04-16T09:22:36.144Z,12.50
2023-04-16T09:25:02.661Z,11.90
2023-04-16T09:27:30.790Z,12.75
2023-04-16T09:29:57.408Z,11.60
2023-04-16T09:32:28.450Z,10.60
2023-04-16T09:35:00.126Z,10.23
2023-04-16T09:37:29.842Z,9.63
2023-04-16T09:40:01.274Z,10.65
2023-04-16T09:42:36.154Z,9.93
2023-04-16T09:45:05.528Z,9.02
2023-04-16T09:47:41.112Z,9.20
2023-04-16T09:50:10.591Z,9.55
2023-04-16T09:52:39.009Z,9.23
2023-04-16T09:55:06.044Z,9.07
2023-04-16T09:57:32.501Z,13.25
2023-04-16T10:00:04.920Z,10.45
2023-04-16T10:02:33.032Z,10.63
2023-04-16T10:05:01.796Z,10.52
2023-04-16T10:07:30.174Z,10.75
2023-04-16T10:10:03.954Z,12.10
2023-04-16T10:12:32.628Z,11.88
2023-04-16T10:14:59.137Z,11.05
2023-04-16T10:17:26.487Z,11.30
2023-04-16T10:19:54.659Z,11.82
2023-04-16T10:22:21.295Z,11.65
2023-04-16T10:24:49.853Z,12.40
2023-04-16T10:27:17.097Z,12.63
2023-04-16T10:29:44.560Z,12.60
2023-04-16T10:32:12.047Z,12.18
2023-04-16T10:34:39.086Z,12.55
2023-04-16T10:37:05.546Z,12.38
2023-04-16T10:39:37.328Z,11.85
2023-04-16T10:42:13.388Z,12.90
2023-04-16T10:44:43.629Z,12.40
2023-04-16T10:49:40.158Z,14.82
2023-04-16T10:52:12.583Z,11.75
2023-04-16T10:54:40.426Z,12.18
2023-04-16T10:57:09.128Z,11.45
2023-04-16T10:59:37.671Z,12.93
2023-04-16T11:02:11.924Z,12.20
2023-04-16T11:04:40.339Z,11.77
2023-04-16T11:07:18.592Z,12.18
2023-04-16T11:10:02.351Z,10.77
2023-04-16T11:12:37.522Z,9.88
2023-04-16T11:15:05.998Z,9.73
2023-04-16T11:17:37.132Z,10.10
2023-04-16T11:20:19.462Z,10.65
2023-04-16T11:22:47.785Z,9.75
2023-04-16T11:25:19.917Z,9.43
2023-04-16T11:27:46.366Z,9.18
2023-04-16T11:30:13.602Z,9.27
2023-04-16T11:32:40.695Z,9.13
2023-04-16T11:35:25.192Z,9.23
2023-04-16T11:37:56.644Z,8.27
2023-04-16T11:40:23.266Z,8.55
2023-04-16T11:42:49.736Z,8.52
2023-04-16T11:45:16.352Z,7.93
2023-04-16T11:47:51.968Z,8.27
2023-04-16T11:50:21.956Z,8.85
2023-04-16T11:52:49.281Z,9.40
2023-04-16T11:55:15.955Z,9.57
2023-04-16T11:57:42.486Z,9.40
2023-04-16T12:00:13.755Z,8.45
2023-04-16T12:02:41.850Z,8.30
2023-04-16T12:05:38.785Z,8.23
2023-04-16T12:08:09.451Z,8.60
2023-04-16T12:10:52.368Z,9.07
2023-04-16T12:13:19.629Z,9.18
2023-04-16T12:15:50.183Z,8.88
2023-04-16T12:18:17.769Z,8.55
2023-04-16T12:20:45.850Z,8.05
2023-04-16T12:23:33.095Z,8.30
2023-04-16T12:26:10.451Z,8.40
2023-04-16T12:28:39.324Z,9.48
2023-04-16T12:31:06.887Z,9.57
2023-04-16T12:33:33.363Z,7.10
2023-04-16T12:36:01.607Z,7.50
2023-04-16T12:38:28.667Z,8.10
2023-04-16T12:40:57.160Z,7.88
2023-04-16T12:43:24.473Z,7.25
2023-04-16T12:45:51.069Z,6.70
2023-04-16T12:48:17.530Z,7.03
2023-04-16T12:50:44.664Z,6.25
2023-04-16T12:53:11.934Z,7.28
2023-04-16T12:55:38.491Z,6.15
2023-04-16T12:58:04.924Z,6.40
2023-04-16T13:00:31.332Z,5.55
2023-04-16T13:02:57.883Z,6.30
2023-04-16T13:05:24.425Z,6.50
2023-04-16T13:07:50.888Z,6.35
2023-04-16T13:10:17.410Z,5.70
2023-04-16T13:12:43.847Z,6.60
2023-04-16T13:15:10.668Z,8.75
2023-04-16T13:17:37.102Z,5.90
2023-04-16T13:20:03.881Z,6.15
2023-04-16T13:22:30.521Z,6.75
2023-04-16T13:24:57.039Z,6.72
2023-04-16T13:27:23.518Z,6.25
2023-04-16T13:29:49.948Z,6.25
2023-04-16T13:32:17.260Z,5.55
2023-04-16T13:34:43.781Z,6.32
2023-04-16T13:37:10.285Z,6.30
2023-04-16T13:39:36.678Z,6.07
2023-04-16T13:42:03.247Z,5.72
2023-04-16T13:44:29.682Z,5.18
2023-04-16T13:46:56.480Z,5.07
2023-04-16T13:49:23.458Z,5.35
2023-04-16T13:51:50.012Z,5.57
2023-04-16T13:54:16.457Z,4.68
2023-04-16T13:56:43.170Z,5.18
2023-04-16T13:59:09.882Z,5.75
2023-04-16T14:01:36.557Z,5.35
2023-04-16T14:04:06.409Z,4.88
2023-04-16T14:06:34.327Z,4.43
2023-04-16T14:09:01.248Z,4.97
2023-04-16T14:11:27.883Z,4.95
2023-04-16T14:13:54.727Z,4.53
2023-04-16T14:16:21.484Z,3.72
2023-04-16T14:18:48.087Z,4.05
2023-04-16T14:21:14.504Z,4.07
2023-04-16T14:23:41.132Z,3.53
2023-04-16T14:26:07.614Z,4.28
2023-04-16T14:28:35.443Z,3.90
2023-04-16T14:31:01.873Z,4.35
2023-04-16T14:33:28.331Z,3.40
2023-04-16T14:35:54.843Z,4.05
2023-04-16T14:38:21.334Z,4.65
2023-04-16T14:40:48.658Z,3.90
2023-04-16T14:43:15.267Z,4.40
2023-04-16T14:45:41.811Z,4.13
2023-04-16T14:48:08.448Z,3.58
2023-04-16T14:50:38.862Z,4.13
2023-04-16T14:53:05.859Z,3.60
2023-04-16T14:55:32.794Z,4.15
2023-04-16T14:57:59.779Z,3.92
2023-04-16T15:00:27.546Z,3.40
2023-04-16T15:02:57.790Z,3.85
2023-04-16T15:05:24.556Z,7.93
2023-04-16T15:07:51.167Z,4.88
2023-04-16T15:10:17.612Z,4.28
2023-04-16T15:12:44.039Z,3.15
2023-04-16T15:15:10.879Z,2.97
2023-04-16T15:17:37.486Z,2.47
2023-04-16T15:20:08.197Z,3.08
2023-04-16T15:22:34.887Z,3.00
2023-04-16T15:25:01.379Z,3.22
2023-04-16T15:27:27.919Z,2.72
2023-04-16T15:29:54.390Z,3.20
2023-04-16T15:32:20.958Z,3.25
2023-04-16T15:34:47.469Z,2.55
2023-04-16T15:37:14.122Z,3.35
2023-04-16T15:39:40.764Z,2.72
2023-04-16T15:42:08.022Z,3.55
2023-04-16T15:44:34.732Z,4.15
2023-04-16T15:47:01.362Z,3.97
2023-04-16T15:49:27.970Z,4.28
2023-04-16T15:51:54.518Z,4.10
2023-04-16T15:54:21.459Z,3.63
2023-04-16T15:56:48.066Z,5.78
2023-04-16T15:59:14.500Z,4.40
2023-04-16T16:01:41.015Z,3.47
2023-04-16T16:04:08.163Z,4.00
2023-04-16T16:06:35.632Z,4.07
2023-04-16T16:09:02.179Z,4.90
2023-04-16T16:11:28.660Z,5.03
2023-04-16T16:13:55.419Z,4.88
2023-04-16T16:16:22.025Z,4.60
2023-04-16T16:18:48.712Z,4.88
2023-04-16T16:21:15.223Z,5.32
2023-04-16T16:23:41.981Z,5.40
2023-04-16T16:26:09.128Z,5.22
2023-04-16T16:28:37.733Z,6.15
2023-04-16T16:31:05.839Z,6.25
2023-04-16T16:33:32.849Z,5.50
2023-04-16T16:35:59.231Z,5.80
2023-04-16T16:38:25.884Z,4.80
2023-04-16T16:40:52.377Z,6.50
2023-04-16T16:43:18.822Z,5.57
2023-04-16T16:45:46.431Z,5.65
2023-04-16T16:48:12.928Z,5.60
2023-04-16T16:50:39.462Z,5.43
2023-04-16T16:53:06.281Z,5.25
2023-04-16T16:55:32.766Z,5.97
2023-04-16T16:57:59.346Z,5.90
2023-04-16T17:00:25.994Z,6.85
2023-04-16T17:02:52.840Z,6.32
2023-04-16T17:05:19.762Z,5.70
2023-04-16T17:07:46.318Z,5.45
2023-04-16T17:10:22.367Z,5.55
2023-04-16T17:12:50.461Z,5.20
2023-04-16T17:15:20.564Z,5.13
2023-04-16T17:17:48.501Z,4.78
2023-04-16T17:20:15.685Z,4.70
2023-04-16T17:22:42.658Z,4.32
2023-04-16T17:25:09.447Z,4.10
2023-04-16T17:27:36.233Z,3.80
2023-04-16T17:30:05.265Z,9.73
2023-04-16T17:32:32.577Z,3.97
2023-04-16T17:35:00.897Z,3.63
2023-04-16T17:37:27.848Z,3.00
2023-04-16T17:39:54.700Z,3.05
2023-04-16T17:42:21.719Z,3.08
2023-04-16T17:44:48.307Z,3.03
2023-04-16T17:47:14.802Z,3.17
2023-04-16T17:49:41.536Z,2.88
2023-04-16T17:52:08.046Z,3.15
2023-04-16T17:54:34.546Z,3.08
2023-04-16T17:57:01.872Z,3.30
2023-04-16T17:59:28.553Z,3.00
2023-04-16T18:01:56.174Z,2.55
2023-04-16T18:04:23.408Z,2.80
2023-04-16T18:06:50.415Z,2.60
2023-04-16T18:09:16.889Z,2.67
2023-04-16T18:11:43.799Z,3.30
2023-04-16T18:14:13.358Z,2.95
2023-04-16T18:16:40.282Z,3.28
2023-04-16T18:19:06.987Z,3.08
2023-04-16T18:21:35.311Z,2.70
2023-04-16T18:24:03.400Z,5.25
2023-04-16T18:26:30.107Z,2.80
2023-04-16T18:28:56.852Z,2.55
2023-04-16T18:31:23.601Z,3.53
2023-04-16T18:33:57.365Z,3.72
2023-04-16T18:36:24.588Z,2.83
2023-04-16T18:39:00.912Z,2.90
2023-04-16T18:41:28.951Z,3.30
2023-04-16T18:43:55.468Z,2.85
2023-04-16T18:46:21.957Z,3.28
2023-04-16T18:48:48.536Z,2.70
2023-04-16T18:51:16.307Z,3.13
2023-04-16T18:53:44.450Z,3.08
2023-04-16T18:56:11.636Z,2.50
2023-04-16T18:58:38.228Z,2.88
2023-04-16T19:01:07.701Z,2.90
2023-04-16T19:03:34.439Z,3.22
2023-04-16T19:06:01.114Z,6.93
2023-04-16T19:08:27.590Z,3.55
2023-04-16T19:10:54.160Z,3.28
2023-04-16T19:13:20.652Z,3.15
2023-04-16T19:15:47.468Z,3.40
2023-04-16T19:18:14.135Z,3.55
2023-04-16T19:20:40.720Z,3.60
2023-04-16T19:23:08.917Z,4.00
2023-04-16T19:25:36.466Z,3.47
2023-04-16T19:28:03.744Z,3.40
2023-04-16T19:30:30.910Z,3.75
2023-04-16T19:32:57.956Z,3.35
2023-04-16T19:35:24.521Z,3.72
2023-04-16T19:37:51.406Z,3.08
2023-04-16T19:40:19.444Z,3.28
2023-04-16T19:42:45.879Z,4.15
2023-04-16T19:45:12.552Z,3.83
2023-04-16T19:47:39.313Z,4.15
2023-04-16T19:50:06.447Z,4.53
2023-04-16T19:52:38.616Z,4.78
2023-04-16T19:55:06.476Z,4.90
2023-04-16T19:57:33.153Z,5.32
2023-04-16T20:00:00.447Z,5.05
2023-04-16T20:02:27.152Z,4.50
2023-04-16T20:04:53.778Z,4.38
2023-04-16T20:07:20.560Z,4.65
2023-04-16T20:09:47.234Z,4.80
2023-04-16T20:12:14.406Z,5.32
2023-04-16T20:14:41.784Z,4.50
2023-04-16T20:17:09.888Z,5.15
2023-04-16T20:19:40.585Z,5.78
2023-04-16T20:22:07.027Z,5.70
2023-04-16T20:24:34.657Z,5.47
2023-04-16T20:27:01.733Z,6.32
2023-04-16T20:29:28.375Z,6.18
2023-04-16T20:31:54.873Z,6.45
2023-04-16T20:34:21.347Z,11.40
2023-04-16T20:36:48.069Z,7.82
2023-04-16T20:39:20.282Z,7.55
2023-04-16T20:41:56.438Z,7.05
2023-04-16T20:44:26.353Z,6.65
2023-04-16T20:46:56.226Z,6.50
2023-04-16T20:49:24.789Z,7.20
2023-04-16T20:51:51.463Z,7.75
2023-04-16T20:54:17.992Z,7.80
2023-04-16T20:56:44.891Z,7.30
2023-04-16T20:59:13.308Z,7.35
2023-04-16T21:01:40.132Z,7.13
2023-04-16T21:04:07.134Z,7.70
2023-04-16T21:06:38.234Z,7.53
2023-04-16T21:09:06.051Z,7.90
2023-04-16T21:11:34.637Z,7.47
2023-04-16T21:14:05.097Z,7.30
2023-04-16T21:16:32.363Z,7.72
2023-04-16T21:18:59.111Z,8.10
2023-04-16T21:21:27.508Z,7.35
2023-04-16T21:23:54.146Z,7.00
2023-04-16T21:26:20.910Z,9.18
2023-04-16T21:28:47.384Z,7.15
2023-04-16T21:31:14.037Z,7.05
2023-04-16T21:33:40.623Z,7.78
2023-04-16T21:36:07.532Z,7.78
2023-04-16T21:38:34.187Z,7.85
2023-04-16T21:41:01.621Z,7.95
2023-04-16T21:43:32.258Z,8.23
2023-04-16T21:45:59.455Z,7.85
2023-04-16T21:48:27.010Z,7.65
2023-04-16T21:50:58.316Z,8.50
2023-04-16T21:53:26.867Z,9.05
2023-04-16T21:55:53.678Z,7.90
2023-04-16T21:58:20.302Z,8.85
2023-04-16T22:00:47.153Z,9.73
2023-04-16T22:03:14.173Z,8.68
2023-04-16T22:05:41.063Z,9.00
2023-04-16T22:08:23.480Z,8.10
2023-04-16T22:10:51.353Z,8.82
2023-04-16T22:13:18.105Z,8.57
2023-04-16T22:15:44.613Z,8.23
2023-04-16T22:18:11.450Z,8.85
2023-04-16T22:20:38.912Z,9.48
2023-04-16T22:23:06.617Z,9.60
2023-04-16T22:25:33.591Z,9.75
2023-04-16T22:28:01.420Z,9.55
2023-04-16T22:30:27.913Z,8.80
2023-04-16T22:32:54.475Z,9.57
2023-04-16T22:35:20.985Z,8.85
2023-04-16T22:37:47.486Z,9.27
2023-04-16T22:40:14.730Z,9.95
2023-04-16T22:42:41.162Z,9.63
2023-04-16T22:45:08.389Z,10.15
2023-04-16T22:47:34.851Z,10.15
2023-04-16T22:50:01.290Z,11.25
2023-04-16T22:52:27.680Z,11.10
2023-04-16T22:54:54.373Z,10.88
2023-04-16T22:57:26.802Z,9.68
2023-04-16T22:59:53.375Z,9.05
2023-04-16T23:02:21.202Z,10.00
2023-04-16T23:04:48.117Z,10.48
2023-04-16T23:07:15.495Z,9.60
2023-04-16T23:09:42.460Z,9.30
2023-04-16T23:12:08.880Z,9.85
2023-04-16T23:14:36.721Z,9.80
2023-04-16T23:17:03.202Z,9.98
2023-04-16T23:19:30.990Z,9.90
2023-04-16T23:21:57.550Z,9.48
2023-04-16T23:24:24.040Z,9.57
2023-04-16T23:26:52.308Z,10.63
2023-04-16T23:29:19.008Z,9.60
2023-04-16T23:31:45.568Z,9.65
2023-04-16T23:34:12.047Z,10.45
2023-04-16T23:36:39.172Z,10.02
2023-04-16T23:39:05.650Z,11.15
2023-04-16T23:41:32.097Z,9.88
2023-04-16T23:43:58.682Z,9.38
2023-04-16T23:46:25.186Z,11.02
2023-04-16T23:48:52.589Z,9.90
2023-04-16T23:51:19.057Z,9.48
2023-04-16T23:53:45.526Z,10.20
2023-04-16T23:56:12.045Z,10.15
2023-04-16T23:58:38.469Z,10.38
